Time;durP1;ratioP1;P1;durP2;ratioP2;P2;SDS_P1;SDS_P2;PMS_P1;PMS_P2;Temp;Humidity;BMP_temperature;BMP_pressure;BME280_temperature;BME280_humidity;BME280_pressure;Samples;Min_cycle;Max_cycle;Signal;HPM_P1;HPM_P2
2023/05/23 00:01:21;;;;;;;12.90;9.32;;;16.10;99.90;;;;;;5074231;28;20176;-50
2023/05/23 00:03:48;;;;;;;12.30;9.57;;;16.20;99.90;;;;;;5074446;28;20174;-51
2023/05/23 00:06:13;;;;;;;12.75;9.32;;;16.20;99.90;;;;;;5074062;28;20220;-52
2023/05/23 00:08:39;;;;;;;10.85;9.55;;;16.20;99.90;;;;;;5074003;28;20174;-50
2023/05/23 00:11:05;;;;;;;12.45;9.48;;;16.10;99.90;;;;;;5074198;28;20162;-49
2023/05/23 00:13:33;;;;;;;13.43;10.18;;;15.90;99.90;;;;;;5074051;28;20200;-47
2023/05/23 00:15:59;;;;;;;12.38;9.75;;;16.10;99.90;;;;;;5073704;28;20202;-50
2023/05/23 00:18:25;;;;;;;12.32;10.38;;;16.10;99.90;;;;;;5073914;28;20188;-52
2023/05/23 00:20:50;;;;;;;13.60;9.98;;;16.00;99.90;;;;;;5073971;28;20169;-52
2023/05/23 00:23:20;;;;;;;14.38;9.77;;;16.00;99.90;;;;;;5074215;28;20670;-48
2023/05/23 00:25:51;;;;;;;14.20;10.95;;;;;;;;;;5074072;28;20574;-48
2023/05/23 00:28:17;;;;;;;12.18;9.77;;;15.90;99.90;;;;;;5073679;28;20647;-49
2023/05/23 00:30:43;;;;;;;11.50;9.93;;;15.90;99.90;;;;;;5073786;28;20178;-49
2023/05/23 00:33:08;;;;;;;14.50;10.05;;;15.90;99.90;;;;;;5073708;28;20207;-49
2023/05/23 00:35:34;;;;;;;15.23;10.38;;;;;;;;;;5074021;28;20202;-48
2023/05/23 00:38:01;;;;;;;14.20;10.32;;;16.00;99.90;;;;;;5073634;28;20173;-50
2023/05/23 00:40:26;;;;;;;13.55;10.68;;;16.00;99.90;;;;;;5073438;28;20181;-51
2023/05/23 00:42:52;;;;;;;14.77;11.13;;;16.10;99.90;;;;;;5073781;28;20170;-51
2023/05/23 00:45:18;;;;;;;13.30;10.60;;;16.00;99.90;;;;;;5073527;28;20525;-49
2023/05/23 00:47:45;;;;;;;11.93;9.30;;;16.10;99.90;;;;;;5073367;28;20251;-51
2023/05/23 00:50:13;;;;;;;10.73;8.98;;;16.10;99.90;;;;;;5073393;28;20702;-50
2023/05/23 00:52:39;;;;;;;12.52;10.05;;;16.10;99.90;;;;;;5073528;28;20537;-48
2023/05/23 00:55:07;;;;;;;14.57;9.73;;;16.20;99.90;;;;;;5073635;28;20209;-51
2023/05/23 00:57:33;;;;;;;14.73;10.85;;;16.20;99.90;;;;;;5073709;28;20162;-51
2023/05/23 01:00:00;;;;;;;14.77;10.90;;;16.20;99.90;;;;;;5073250;28;20158;-48
2023/05/23 01:02:26;;;;;;;17.27;11.20;;;16.20;99.90;;;;;;5073418;28;20181;-50
2023/05/23 01:04:54;;;;;;;13.30;10.13;;;16.20;99.90;;;;;;5073002;28;20177;-50
2023/05/23 01:07:22;;;;;;;15.27;11.88;;;16.20;99.90;;;;;;5072886;28;20552;-49
2023/05/23 01:09:48;;;;;;;14.70;10.75;;;16.20;99.90;;;;;;5072980;28;20546;-50
2023/05/23 01:12:48;;;;;;;11.40;9.25;;;16.20;99.90;;;;;;5072929;28;20170;-52
2023/05/23 01:15:16;;;;;;;18.77;10.25;;;16.20;99.90;;;;;;5072799;28;20641;-49
2023/05/23 01:18:07;;;;;;;14.57;11.50;;;16.20;99.90;;;;;;5072827;28;20174;-51
2023/05/23 01:20:40;;;;;;;12.25;9.23;;;16.20;99.90;;;;;;5073263;28;20190;-51
2023/05/23 01:23:26;;;;;;;15.23;10.82;;;16.20;99.90;;;;;;5072984;28;20166;-46
2023/05/23 01:26:19;;;;;;;12.85;9.63;;;16.20;99.90;;;;;;5072682;28;20162;-50
2023/05/23 01:28:48;;;;;;;10.00;7.53;;;16.10;99.90;;;;;;5072080;28;20170;-51
2023/05/23 01:31:16;;;;;;;5.88;4.32;;;16.00;99.90;;;;;;5072538;28;20166;-52
2023/05/23 01:33:42;;;;;;;6.95;4.63;;;15.90;99.90;;;;;;5072554;28;20174;-50
2023/05/23 01:36:09;;;;;;;6.25;4.50;;;16.00;99.90;;;;;;5072563;28;20219;-47
2023/05/23 01:38:35;;;;;;;5.55;4.72;;;15.90;99.90;;;;;;5072735;28;20163;-48
2023/05/23 01:41:00;;;;;;;5.85;4.97;;;15.90;99.90;;;;;;5072339;28;20170;-49
2023/05/23 01:43:26;;;;;;;4.57;3.50;;;15.90;99.90;;;;;;5072283;28;20166;-47
2023/05/23 01:45:54;;;;;;;5.50;3.53;;;15.90;99.90;;;;;;5072299;28;20178;-48
2023/05/23 01:48:21;;;;;;;5.20;4.07;;;15.80;99.90;;;;;;5072140;28;20181;-46
2023/05/23 01:50:46;;;;;;;5.22;4.30;;;15.90;99.90;;;;;;5072159;28;20631;-47
2023/05/23 01:53:14;;;;;;;6.07;4.30;;;15.90;99.90;;;;;;5071992;28;20173;-46
2023/05/23 01:55:41;;;;;;;5.07;4.28;;;15.90;99.90;;;;;;5072041;28;20197;-47
2023/05/23 01:58:06;;;;;;;8.82;4.30;;;15.90;99.90;;;;;;5072299;28;20519;-46
2023/05/23 02:00:32;;;;;;;5.43;4.00;;;15.90;99.90;;;;;;5072451;28;20199;-46
2023/05/23 02:02:58;;;;;;;6.13;4.38;;;15.90;99.90;;;;;;5071948;28;20166;-47
2023/05/23 02:05:24;;;;;;;7.25;4.65;;;15.90;99.90;;;;;;5072122;28;20200;-47
2023/05/23 02:07:50;;;;;;;4.57;3.95;;;15.90;99.90;;;;;;5071670;28;20249;-46
2023/05/23 02:10:15;;;;;;;4.65;4.07;;;15.80;99.90;;;;;;5071871;28;20651;-46
2023/05/23 02:12:41;;;;;;;5.20;4.43;;;;;;;;;;5071821;28;20236;-47
2023/05/23 02:15:08;;;;;;;4.65;4.00;;;15.90;99.90;;;;;;5071899;28;20203;-46
2023/05/23 02:17:33;;;;;;;6.13;4.50;;;15.90;99.90;;;;;;5072404;28;20174;-47
2023/05/23 02:19:59;;;;;;;5.82;4.40;;;15.80;99.90;;;;;;5071743;28;20574;-46
2023/05/23 02:22:25;;;;;;;6.50;5.30;;;15.70;99.90;;;;;;5071907;28;20174;-46
2023/05/23 02:24:51;;;;;;;6.38;5.10;;;15.80;99.90;;;;;;5071905;28;20201;-46
2023/05/23 02:27:17;;;;;;;5.72;5.13;;;15.80;99.90;;;;;;5071624;28;20688;-46
2023/05/23 02:29:43;;;;;;;8.75;5.40;;;15.80;99.90;;;;;;5071806;28;20188;-47
2023/05/23 02:32:08;;;;;;;8.40;5.25;;;15.80;99.90;;;;;;5071526;28;20241;-47
2023/05/23 02:34:34;;;;;;;6.22;5.63;;;15.80;99.90;;;;;;5071877;28;20683;-47
2023/05/23 02:36:59;;;;;;;8.05;5.60;;;15.80;99.90;;;;;;5071762;28;20197;-46
2023/05/23 02:39:26;;;;;;;6.72;5.90;;;15.80;99.90;;;;;;5071302;28;20173;-47
2023/05/23 02:41:51;;;;;;;7.88;6.13;;;15.70;99.90;;;;;;5071395;28;20219;-46
2023/05/23 02:44:18;;;;;;;7.47;5.80;;;15.70;99.90;;;;;;5071366;28;20174;-46
2023/05/23 02:46:44;;;;;;;9.40;6.68;;;15.70;99.90;;;;;;5071662;28;20559;-48
2023/05/23 02:49:10;;;;;;;7.75;5.88;;;15.70;99.90;;;;;;5071652;28;20261;-46
2023/05/23 02:51:36;;;;;;;9.95;6.40;;;;;;;;;;5071770;28;20253;-46
2023/05/23 02:54:01;;;;;;;8.85;6.30;;;15.70;99.90;;;;;;5071757;28;20162;-47
2023/05/23 02:56:27;;;;;;;10.32;6.05;;;15.60;99.90;;;;;;5071263;28;20738;-47
2023/05/23 02:58:52;;;;;;;9.27;6.43;;;15.70;99.90;;;;;;5071411;28;20170;-46
2023/05/23 03:01:18;;;;;;;7.65;5.90;;;;;;;;;;5071306;28;20197;-46
2023/05/23 03:03:44;;;;;;;11.18;6.13;;;15.70;99.90;;;;;;5071543;28;20260;-47
2023/05/23 03:06:13;;;;;;;9.98;6.35;;;15.60;99.90;;;;;;5070995;28;20244;-46
2023/05/23 03:08:39;;;;;;;9.57;6.45;;;15.60;99.90;;;;;;5071189;28;20203;-46
2023/05/23 03:11:05;;;;;;;11.30;6.18;;;15.60;99.90;;;;;;5071583;28;20526;-47
2023/05/23 03:13:31;;;;;;;10.60;6.43;;;;;;;;;;5071147;28;20249;-46
2023/05/23 03:15:56;;;;;;;7.05;6.07;;;15.60;99.90;;;;;;5071116;28;20248;-46
2023/05/23 03:18:22;;;;;;;12.15;6.00;;;15.50;99.90;;;;;;5071353;28;20170;-46
2023/05/23 03:20:47;;;;;;;8.05;6.10;;;15.50;99.90;;;;;;5071328;28;20628;-48
2023/05/23 03:23:13;;;;;;;6.68;5.60;;;15.40;99.90;;;;;;5071043;28;20639;-47
2023/05/23 03:25:38;;;;;;;9.80;5.95;;;15.50;99.90;;;;;;5070660;28;20711;-50
2023/05/23 03:28:04;;;;;;;9.13;6.07;;;15.50;99.90;;;;;;5071456;28;20208;-48
2023/05/23 03:30:29;;;;;;;10.77;5.72;;;15.50;99.90;;;;;;5071040;28;20632;-47
2023/05/23 03:32:55;;;;;;;11.55;5.72;;;15.50;99.90;;;;;;5070902;28;20249;-46
2023/05/23 03:35:20;;;;;;;15.82;6.75;;;15.50;99.90;;;;;;5070890;28;20210;-46
2023/05/23 03:37:46;;;;;;;11.52;6.65;;;15.50;99.90;;;;;;5070926;28;20589;-48
2023/05/23 03:40:11;;;;;;;9.02;6.20;;;15.40;99.90;;;;;;5070897;28;20677;-47
2023/05/23 03:42:38;;;;;;;7.50;5.38;;;15.30;99.90;;;;;;5070895;28;20627;-47
2023/05/23 03:45:05;;;;;;;7.95;4.97;;;15.40;99.90;;;;;;5071199;28;20166;-46
2023/05/23 03:47:31;;;;;;;9.27;5.85;;;;;;;;;;5071535;28;20174;-46
2023/05/23 03:49:56;;;;;;;9.35;5.97;;;15.50;99.90;;;;;;5070858;28;20200;-46
2023/05/23 03:52:22;;;;;;;8.82;5.63;;;15.40;99.90;;;;;;5073473;28;20677;-46
2023/05/23 03:54:48;;;;;;;8.73;5.55;;;15.50;99.90;;;;;;5074397;28;20241;-46
2023/05/23 03:57:13;;;;;;;10.38;5.97;;;15.40;99.90;;;;;;5074351;28;20181;-46
2023/05/23 03:59:39;;;;;;;9.48;6.10;;;15.40;99.90;;;;;;5074288;28;20174;-46
2023/05/23 04:02:05;;;;;;;11.55;5.35;;;15.40;99.90;;;;;;5074914;28;20166;-46
2023/05/23 04:04:31;;;;;;;8.40;6.13;;;15.40;99.90;;;;;;5074670;28;20628;-46
2023/05/23 04:06:57;;;;;;;12.55;5.78;;;15.40;99.90;;;;;;5074013;28;20252;-46
2023/05/23 04:09:22;;;;;;;11.20;5.47;;;15.30;99.90;;;;;;5074331;28;20171;-47
2023/05/23 04:11:48;;;;;;;7.75;4.78;;;15.30;99.90;;;;;;5074214;28;20162;-46
2023/05/23 04:14:14;;;;;;;6.28;5.10;;;15.30;99.90;;;;;;5074079;28;20166;-46
2023/05/23 04:16:40;;;;;;;7.43;5.68;;;15.40;99.90;;;;;;5073876;28;20271;-47
2023/05/23 04:19:06;;;;;;;10.23;5.75;;;15.30;99.90;;;;;;5074234;28;20181;-46
2023/05/23 04:21:32;;;;;;;8.90;5.45;;;15.20;99.90;;;;;;5074305;28;20631;-47
2023/05/23 04:23:58;;;;;;;8.48;6.13;;;15.30;99.90;;;;;;5073914;28;20173;-46
2023/05/23 04:26:24;;;;;;;9.65;6.55;;;15.30;99.90;;;;;;5073914;28;20170;-46
2023/05/23 04:28:53;;;;;;;10.70;5.30;;;15.20;99.90;;;;;;5073785;28;20741;-47
2023/05/23 04:31:19;;;;;;;8.68;5.82;;;15.20;99.90;;;;;;5073786;28;20162;-46
2023/05/23 04:33:44;;;;;;;10.45;6.20;;;15.10;99.90;;;;;;5073737;28;20188;-46
2023/05/23 04:36:10;;;;;;;10.07;5.93;;;15.30;99.90;;;;;;5073573;28;20205;-46
2023/05/23 04:38:37;;;;;;;8.57;5.82;;;;;;;;;;5073722;28;20202;-46
2023/05/23 04:41:05;;;;;;;8.80;5.82;;;15.30;99.90;;;;;;5073978;28;20189;-47
2023/05/23 04:43:32;;;;;;;10.43;5.80;;;15.20;99.90;;;;;;5073840;28;20529;-46
2023/05/23 04:45:58;;;;;;;9.38;6.13;;;15.30;99.90;;;;;;5073479;28;20303;-47
2023/05/23 04:48:24;;;;;;;10.57;6.05;;;15.30;99.90;;;;;;5073368;28;20665;-46
2023/05/23 04:50:51;;;;;;;7.03;5.10;;;15.30;99.90;;;;;;5073726;28;20174;-46
2023/05/23 04:53:17;;;;;;;11.05;6.80;;;15.30;99.90;;;;;;5073571;28;20177;-46
2023/05/23 04:55:43;;;;;;;11.52;6.63;;;15.20;99.90;;;;;;5073476;28;20234;-47
2023/05/23 04:58:08;;;;;;;13.18;6.90;;;15.30;99.90;;;;;;5073188;28;20190;-46
2023/05/23 05:00:34;;;;;;;11.38;5.63;;;15.30;99.90;;;;;;5073782;28;20517;-47
2023/05/23 05:03:00;;;;;;;9.57;6.07;;;15.40;99.90;;;;;;5072287;28;20212;-46
2023/05/23 05:05:26;;;;;;;13.70;7.03;;;15.30;99.90;;;;;;5073102;28;20166;-46
2023/05/23 05:07:52;;;;;;;12.10;6.70;;;;;;;;;;5072831;28;20218;-46
2023/05/23 05:10:18;;;;;;;8.75;6.82;;;15.20;99.90;;;;;;5072813;28;20524;-47
2023/05/23 05:12:50;;;;;;;13.52;6.50;;;15.30;99.90;;;;;;5072818;28;20537;-46
2023/05/23 05:15:17;;;;;;;10.73;6.38;;;15.40;99.90;;;;;;5072846;28;20200;-52
2023/05/23 05:17:43;;;;;;;11.15;7.30;;;;;;;;;;5071602;28;20194;-51
2023/05/23 05:20:10;;;;;;;14.68;6.45;;;15.20;99.90;;;;;;5072903;28;20181;-51
2023/05/23 05:22:38;;;;;;;12.40;7.63;;;15.30;99.90;;;;;;5072704;28;20166;-49
2023/05/23 05:25:06;;;;;;;8.55;5.75;;;;;;;;;;5073262;28;20181;-51
2023/05/23 05:27:32;;;;;;;7.88;6.47;;;15.20;99.90;;;;;;5072932;28;20647;-51
2023/05/23 05:30:02;;;;;;;11.13;7.30;;;15.30;99.90;;;;;;5072584;28;20170;-51
2023/05/23 05:32:30;;;;;;;10.88;6.10;;;15.30;99.90;;;;;;5072817;28;20178;-51
2023/05/23 05:34:56;;;;;;;10.18;7.78;;;;;;;;;;5072666;28;20202;-51
2023/05/23 05:37:21;;;;;;;13.75;7.35;;;15.30;99.90;;;;;;5072445;28;20228;-51
2023/05/23 05:39:47;;;;;;;9.40;6.90;;;15.30;99.90;;;;;;5072534;28;20177;-47
2023/05/23 05:42:12;;;;;;;11.18;6.90;;;15.30;99.90;;;;;;5072216;28;20170;-46
2023/05/23 05:44:38;;;;;;;12.30;6.90;;;15.30;99.90;;;;;;5072358;28;20175;-46
2023/05/23 05:47:04;;;;;;;10.43;6.60;;;15.40;99.90;;;;;;5070984;28;20173;-46
2023/05/23 05:49:29;;;;;;;7.43;6.32;;;15.30;99.90;;;;;;5070453;28;20227;-47
2023/05/23 05:51:55;;;;;;;10.27;6.90;;;;;;;;;;5070337;28;20256;-46
2023/05/23 05:54:21;;;;;;;12.95;6.88;;;15.50;99.90;;;;;;5070275;28;20204;-45
2023/05/23 05:56:47;;;;;;;9.68;6.93;;;;;;;;;;5068555;28;20209;-47
2023/05/23 05:59:13;;;;;;;11.30;7.15;;;15.20;99.90;;;;;;5069835;28;20204;-47
2023/05/23 06:01:39;;;;;;;9.02;6.72;;;;;;;;;;5069908;28;20590;-46
2023/05/23 06:04:05;;;;;;;10.57;6.97;;;;;;;;;;5070676;28;20638;-47
2023/05/23 06:06:31;;;;;;;9.80;6.38;;;15.40;99.90;;;;;;5072197;28;20228;-47
2023/05/23 06:08:58;;;;;;;11.75;7.82;;;15.40;99.90;;;;;;5070486;28;20654;-47
2023/05/23 06:11:23;;;;;;;10.18;6.05;;;15.40;99.90;;;;;;5071875;28;20639;-46
2023/05/23 06:13:49;;;;;;;12.27;6.38;;;15.40;99.90;;;;;;5071469;28;20178;-52
2023/05/23 06:16:14;;;;;;;9.10;6.78;;;15.40;99.90;;;;;;5071370;28;20216;-46
2023/05/23 06:18:40;;;;;;;9.93;7.05;;;15.30;99.90;;;;;;5071722;28;20162;-47
2023/05/23 06:21:06;;;;;;;10.77;6.38;;;15.40;99.90;;;;;;5071793;28;20185;-47
2023/05/23 06:23:31;;;;;;;13.60;7.15;;;15.40;99.90;;;;;;5072141;28;20241;-46
2023/05/23 06:25:58;;;;;;;11.40;6.18;;;15.40;99.90;;;;;;5071487;28;20693;-47
2023/05/23 06:28:24;;;;;;;12.23;7.47;;;15.40;99.90;;;;;;5071328;28;20169;-47
2023/05/23 06:30:49;;;;;;;8.10;5.82;;;15.50;99.90;;;;;;5071543;28;20215;-47
2023/05/23 06:33:15;;;;;;;9.80;6.43;;;15.60;99.90;;;;;;5070428;28;20166;-46
2023/05/23 06:35:41;;;;;;;12.93;7.15;;;15.60;99.90;;;;;;5071164;28;20213;-47
2023/05/23 06:38:07;;;;;;;9.60;6.72;;;15.70;99.90;;;;;;5071417;28;20162;-47
2023/05/23 06:40:33;;;;;;;10.13;6.55;;;15.70;99.90;;;;;;5072032;28;20663;-48
2023/05/23 06:42:58;;;;;;;7.63;5.22;;;15.60;99.90;;;;;;5071176;28;20619;-47
2023/05/23 06:45:24;;;;;;;9.43;5.72;;;15.70;99.90;;;;;;5071433;28;20758;-48
2023/05/23 06:47:50;;;;;;;8.63;5.88;;;15.80;99.90;;;;;;5071389;28;20261;-48
2023/05/23 06:50:18;;;;;;;9.00;6.10;;;15.70;99.90;;;;;;5071667;28;20162;-48
2023/05/23 06:52:45;;;;;;;12.82;6.57;;;15.90;99.90;;;;;;5071388;28;20558;-51
2023/05/23 06:55:16;;;;;;;10.02;5.85;;;;;;;;;;5071339;28;20201;-49
2023/05/23 06:57:42;;;;;;;12.38;5.47;;;15.90;99.90;;;;;;5071317;28;20607;-47
2023/05/23 07:00:09;;;;;;;9.48;5.90;;;15.80;99.90;;;;;;5071279;28;20170;-47
2023/05/23 07:02:35;;;;;;;7.75;4.93;;;;;;;;;;5071051;28;20219;-48
2023/05/23 07:05:00;;;;;;;8.07;5.45;;;15.70;99.90;;;;;;5071863;28;20574;-48
2023/05/23 07:07:26;;;;;;;7.88;5.80;;;15.70;99.90;;;;;;5071069;28;20221;-47
2023/05/23 07:09:51;;;;;;;9.23;5.35;;;15.70;99.90;;;;;;5071194;28;20254;-48
2023/05/23 07:12:17;;;;;;;9.85;5.07;;;15.70;99.90;;;;;;5071365;28;20174;-48
2023/05/23 07:14:43;;;;;;;6.72;4.97;;;15.70;99.90;;;;;;5070987;28;20170;-47
2023/05/23 07:17:08;;;;;;;9.43;5.05;;;15.60;99.90;;;;;;5071083;28;20542;-47
2023/05/23 07:19:34;;;;;;;8.75;5.15;;;15.60;99.90;;;;;;5071523;28;20249;-47
2023/05/23 07:21:59;;;;;;;9.63;5.82;;;15.70;99.90;;;;;;5071505;28;20163;-47
2023/05/23 07:24:25;;;;;;;7.95;5.05;;;15.80;99.90;;;;;;5071066;28;20569;-47
2023/05/23 07:26:51;;;;;;;8.77;5.13;;;;;;;;;;5072749;28;20722;-47
2023/05/23 07:29:16;;;;;;;8.63;5.20;;;15.80;99.90;;;;;;5074904;28;20174;-47
2023/05/23 07:31:42;;;;;;;9.57;5.88;;;15.70;99.90;;;;;;5074928;28;20219;-48
2023/05/23 07:34:08;;;;;;;12.75;6.22;;;;;;;;;;5074963;28;20240;-47
2023/05/23 07:36:34;;;;;;;9.40;5.22;;;15.80;99.90;;;;;;5075270;28;20206;-48
2023/05/23 07:39:00;;;;;;;6.85;4.93;;;15.90;99.90;;;;;;5075146;28;20166;-47
2023/05/23 07:41:26;;;;;;;10.73;4.88;;;16.00;99.90;;;;;;5074680;28;20162;-48
2023/05/23 07:43:51;;;;;;;10.13;6.13;;;15.90;99.90;;;;;;5074844;28;20170;-48
2023/05/23 07:46:17;;;;;;;12.23;6.47;;;16.00;99.90;;;;;;5074554;28;20170;-47
2023/05/23 07:48:43;;;;;;;7.30;5.28;;;16.20;99.90;;;;;;5074756;28;20173;-47
2023/05/23 07:51:08;;;;;;;9.98;5.97;;;16.10;99.90;;;;;;5074414;28;20222;-47
2023/05/23 07:53:38;;;;;;;15.73;6.07;;;16.20;99.90;;;;;;5074639;28;20258;-47
2023/05/23 07:56:07;;;;;;;7.93;5.60;;;16.20;99.90;;;;;;5074918;28;20202;-49
2023/05/23 07:58:32;;;;;;;10.07;7.00;;;16.20;99.90;;;;;;5074821;28;20167;-47
2023/05/23 08:00:58;;;;;;;10.38;6.95;;;16.00;99.90;;;;;;5074298;28;20177;-47
2023/05/23 08:03:24;;;;;;;14.63;7.05;;;16.00;99.90;;;;;;5074366;28;20187;-47
2023/05/23 08:05:50;;;;;;;12.20;7.78;;;15.90;99.90;;;;;;5074117;28;20209;-47
2023/05/23 08:08:16;;;;;;;12.35;7.53;;;;;;;;;;5074419;28;20174;-50
2023/05/23 08:10:44;;;;;;;14.73;8.07;;;15.70;99.90;;;;;;5074059;28;20162;-51
2023/05/23 08:13:10;;;;;;;15.10;7.68;;;15.60;99.90;;;;;;5074403;28;20219;-48
2023/05/23 08:15:35;;;;;;;12.85;8.63;;;15.60;99.90;;;;;;5074174;28;20193;-47
2023/05/23 08:18:01;;;;;;;12.63;7.38;;;15.60;99.90;;;;;;5074571;28;20201;-48
2023/05/23 08:20:29;;;;;;;15.95;7.85;;;15.60;99.90;;;;;;5073754;28;20170;-47
2023/05/23 08:22:59;;;;;;;16.83;8.15;;;15.70;99.90;;;;;;5074170;28;20169;-47
2023/05/23 08:25:29;;;;;;;19.58;8.00;;;15.70;99.90;;;;;;5073868;28;20653;-47
2023/05/23 08:27:57;;;;;;;12.98;7.70;;;15.70;99.90;;;;;;5074119;28;20177;-47
2023/05/23 08:30:24;;;;;;;18.30;7.13;;;15.90;99.90;;;;;;5073580;28;20177;-50
2023/05/23 08:32:54;;;;;;;13.10;6.57;;;15.80;99.90;;;;;;5074003;28;20564;-48
2023/05/23 08:35:20;;;;;;;14.07;8.63;;;15.90;99.90;;;;;;5073668;28;20201;-48
2023/05/23 08:37:47;;;;;;;14.25;7.65;;;16.00;99.90;;;;;;5073489;28;20174;-47
2023/05/23 08:40:20;;;;;;;15.32;7.82;;;16.10;99.90;;;;;;5073528;28;20650;-47
2023/05/23 08:42:49;;;;;;;14.50;7.43;;;15.90;99.90;;;;;;5073558;28;20245;-48
2023/05/23 08:45:16;;;;;;;16.08;7.57;;;16.00;99.90;;;;;;5073211;28;20653;-48
2023/05/23 08:47:45;;;;;;;10.73;7.18;;;15.60;99.90;;;;;;5073432;28;20170;-47
2023/05/23 08:50:13;;;;;;;14.65;8.10;;;15.50;99.90;;;;;;5073579;28;20169;-49
2023/05/23 08:52:59;;;;;;;11.48;7.18;;;15.30;99.90;;;;;;5073648;28;20177;-51
2023/05/23 08:55:27;;;;;;;13.73;7.65;;;15.20;99.90;;;;;;5072885;28;20692;-51
2023/05/23 08:57:58;;;;;;;13.55;8.27;;;15.20;99.90;;;;;;5073323;28;20564;-50
2023/05/23 09:00:25;;;;;;;19.48;8.13;;;15.20;99.90;;;;;;5073519;28;20170;-52
2023/05/23 09:02:52;;;;;;;16.38;7.97;;;15.10;99.90;;;;;;5073215;28;20577;-52
2023/05/23 09:05:18;;;;;;;14.93;7.72;;;;;;;;;;5073074;28;20170;-47
2023/05/23 09:07:46;;;;;;;10.63;6.90;;;15.00;99.90;;;;;;5072948;28;20214;-51
2023/05/23 09:10:13;;;;;;;16.33;7.00;;;15.10;99.90;;;;;;5073293;28;20178;-51
2023/05/23 09:12:39;;;;;;;13.75;7.47;;;15.10;99.90;;;;;;5073044;28;20162;-50
2023/05/23 09:15:08;;;;;;;17.23;6.97;;;15.00;99.90;;;;;;5072829;28;20258;-49
2023/05/23 09:17:35;;;;;;;17.88;7.38;;;;;;;;;;5073526;28;20174;-48
2023/05/23 09:20:18;;;;;;;13.73;6.70;;;14.80;99.90;;;;;;5073189;28;20635;-52
2023/05/23 09:22:47;;;;;;;13.82;7.15;;;15.00;99.90;;;;;;5072709;28;20216;-47
2023/05/23 09:25:13;;;;;;;13.95;6.93;;;14.90;99.90;;;;;;5072720;28;20256;-49
2023/05/23 09:27:40;;;;;;;15.20;6.10;;;14.80;99.90;;;;;;5072667;28;20200;-48
2023/05/23 09:30:10;;;;;;;11.73;6.32;;;15.00;99.90;;;;;;5072634;28;20281;-47
2023/05/23 09:32:36;;;;;;;13.90;7.03;;;15.10;99.90;;;;;;5072831;28;20162;-47
2023/05/23 09:35:03;;;;;;;17.85;5.40;;;15.10;99.90;;;;;;5072810;28;20560;-48
2023/05/23 09:37:38;;;;;;;15.95;5.90;;;15.20;99.90;;;;;;5072894;28;20174;-47
2023/05/23 09:40:10;;;;;;;11.38;5.18;;;15.40;99.90;;;;;;5072985;28;20196;-47
2023/05/23 09:42:41;;;;;;;14.60;5.43;;;15.50;99.90;;;;;;5072299;28;20173;-47
2023/05/23 09:45:07;;;;;;;11.73;5.72;;;15.60;99.90;;;;;;5072025;28;20186;-47
2023/05/23 09:47:32;;;;;;;13.73;6.03;;;15.60;99.90;;;;;;5072326;28;20252;-47
2023/05/23 09:49:58;;;;;;;9.60;6.00;;;15.60;99.90;;;;;;5071523;28;20170;-47
2023/05/23 09:52:23;;;;;;;13.77;6.07;;;15.80;99.90;;;;;;5072227;28;20181;-46
2023/05/23 09:54:49;;;;;;;7.35;4.95;;;;;;;;;;5072091;28;20177;-50
2023/05/23 09:57:16;;;;;;;11.43;5.72;;;16.00;99.90;;;;;;5072328;28;20181;-47
2023/05/23 09:59:57;;;;;;;10.18;6.03;;;16.30;99.90;;;;;;5072184;28;20174;-51
2023/05/23 10:02:43;;;;;;;15.13;6.05;;;16.90;99.90;;;;;;5071905;28;20186;-51
2023/05/23 10:05:13;;;;;;;13.63;5.80;;;16.90;99.90;;;;;;5072156;28;20769;-47
2023/05/23 10:07:39;;;;;;;9.52;6.07;;;16.90;99.90;;;;;;5071867;28;20687;-47
2023/05/23 10:10:09;;;;;;;15.02;6.40;;;16.70;99.90;;;;;;5071896;28;20235;-47
2023/05/23 10:12:50;;;;;;;12.43;6.60;;;16.80;99.90;;;;;;5071821;28;20173;-47
2023/05/23 10:15:17;;;;;;;15.30;6.80;;;16.70;99.90;;;;;;5071651;28;20232;-47
2023/05/23 10:18:08;;;;;;;13.70;6.68;;;16.50;99.90;;;;;;5071781;28;20181;-47
2023/05/23 10:20:35;;;;;;;9.52;5.85;;;16.30;99.90;;;;;;5070723;28;20174;-47
2023/05/23 10:23:04;;;;;;;11.50;6.10;;;16.00;99.90;;;;;;5072074;28;20205;-46
2023/05/23 10:25:29;;;;;;;13.95;5.85;;;15.90;99.90;;;;;;5072286;28;20183;-47
2023/05/23 10:28:00;;;;;;;7.80;4.22;;;15.70;99.90;;;;;;5071722;28;20166;-49
2023/05/23 10:30:26;;;;;;;9.30;6.05;;;15.90;99.90;;;;;;5071108;28;20165;-47
2023/05/23 10:32:54;;;;;;;12.23;6.57;;;15.90;99.90;;;;;;5071857;28;20174;-47
2023/05/23 10:35:53;;;;;;;9.82;5.43;;;16.10;99.90;;;;;;5071725;28;20201;-47
2023/05/23 10:38:47;;;;;;;11.52;5.10;;;16.10;99.90;;;;;;5071716;28;20287;-48
2023/05/23 10:41:41;;;;;;;7.95;4.55;;;16.00;99.90;;;;;;5071731;28;20627;-48
2023/05/23 10:44:30;;;;;;;10.63;5.85;;;15.90;99.90;;;;;;5052046;28;20589;-47
2023/05/23 10:47:01;;;;;;;9.43;4.78;;;15.70;99.90;;;;;;5071444;28;20193;-46
2023/05/23 10:49:39;;;;;;;6.43;4.47;;;15.70;99.90;;;;;;5071697;28;20227;-47
2023/05/23 10:52:06;;;;;;;6.90;5.00;;;15.80;99.90;;;;;;5071684;28;20530;-47
2023/05/23 10:54:36;;;;;;;8.85;4.63;;;16.10;99.90;;;;;;5071988;28;20177;-47
2023/05/23 10:57:03;;;;;;;7.82;4.43;;;16.30;99.90;;;;;;5071604;28;20300;-47
2023/05/23 10:59:28;;;;;;;10.52;4.65;;;16.30;99.90;;;;;;5071703;28;20215;-47
2023/05/23 11:01:55;;;;;;;9.55;4.35;;;16.70;99.90;;;;;;5075289;28;20169;-47
2023/05/23 11:04:26;;;;;;;9.63;4.63;;;16.80;99.90;;;;;;5075392;28;20240;-47
2023/05/23 11:06:53;;;;;;;7.68;4.43;;;16.70;99.90;;;;;;5075226;28;20221;-47
2023/05/23 11:09:20;;;;;;;7.18;4.43;;;17.00;99.90;;;;;;5075635;28;20172;-47
2023/05/23 11:12:04;;;;;;;7.97;4.85;;;17.10;99.90;;;;;;5075192;28;20170;-46
2023/05/23 11:14:50;;;;;;;7.38;4.07;;;17.60;99.90;;;;;;5075889;28;20177;-47
2023/05/23 11:17:16;;;;;;;10.10;4.50;;;17.70;99.90;;;;;;5075037;28;20272;-48
2023/05/23 11:20:05;;;;;;;8.77;5.25;;;17.80;99.90;;;;;;5075029;28;20161;-47
2023/05/23 11:22:32;;;;;;;12.23;6.53;;;17.70;99.90;;;;;;5075509;28;20166;-48
2023/05/23 11:24:59;;;;;;;11.65;6.07;;;17.70;99.90;;;;;;5075593;28;20173;-47
2023/05/23 11:27:37;;;;;;;10.02;6.15;;;17.60;99.90;;;;;;5075288;28;20226;-47
2023/05/23 11:30:07;;;;;;;10.98;5.30;;;17.40;99.90;;;;;;5075379;28;20169;-47
2023/05/23 11:32:33;;;;;;;8.85;5.35;;;17.40;99.90;;;;;;5075257;28;20229;-47
2023/05/23 11:35:03;;;;;;;9.77;5.35;;;17.40;99.90;;;;;;5075248;28;20546;-48
2023/05/23 11:37:30;;;;;;;9.38;6.30;;;17.70;99.90;;;;;;5075406;28;20265;-48
2023/05/23 11:39:56;;;;;;;8.32;5.47;;;;;;;;;;5075043;28;20522;-47
2023/05/23 11:42:23;;;;;;;6.97;5.22;;;17.90;99.90;;;;;;5073582;28;20157;-47
2023/05/23 11:44:52;;;;;;;11.15;5.68;;;17.90;99.90;;;;;;5074949;28;20181;-47
2023/05/23 11:47:18;;;;;;;8.85;5.97;;;17.70;99.90;;;;;;5074459;28;20166;-47
2023/05/23 11:49:45;;;;;;;8.15;5.55;;;17.60;99.90;;;;;;5074319;28;20777;-47
2023/05/23 11:52:11;;;;;;;11.52;7.90;;;17.70;99.90;;;;;;5074528;28;20162;-47
2023/05/23 11:54:40;;;;;;;10.48;5.18;;;17.50;99.90;;;;;;5074640;28;20645;-47
2023/05/23 11:57:06;;;;;;;10.70;5.50;;;;;;;;;;5074362;28;20198;-47
2023/05/23 11:59:33;;;;;;;13.65;5.75;;;17.10;99.90;;;;;;5074686;28;20162;-47
2023/05/23 12:02:01;;;;;;;10.40;5.65;;;17.10;99.90;;;;;;5074679;28;20219;-47
2023/05/23 12:04:27;;;;;;;8.98;5.10;;;17.10;99.90;;;;;;5074239;28;20166;-47
2023/05/23 12:06:53;;;;;;;10.95;5.20;;;17.40;99.90;;;;;;5074229;28;20263;-47
2023/05/23 12:09:19;;;;;;;9.25;5.13;;;17.70;99.90;;;;;;5074184;28;20694;-47
2023/05/23 12:11:44;;;;;;;10.00;5.00;;;17.70;99.90;;;;;;5073415;28;20257;-47
2023/05/23 12:14:16;;;;;;;9.35;3.80;;;17.70;99.90;;;;;;5074048;28;20197;-47
2023/05/23 12:16:47;;;;;;;7.90;3.60;;;18.30;99.90;;;;;;5074288;28;20335;-48
2023/05/23 12:19:15;;;;;;;7.50;3.55;;;18.60;99.90;;;;;;5074211;28;20158;-47
2023/05/23 12:21:45;;;;;;;9.07;3.80;;;18.50;99.90;;;;;;5074478;28;20170;-47
2023/05/23 12:24:23;;;;;;;7.35;3.30;;;18.20;99.90;;;;;;5074146;28;20166;-51
2023/05/23 12:26:59;;;;;;;6.68;3.40;;;18.40;99.90;;;;;;5073995;28;20192;-48
2023/05/23 12:29:32;;;;;;;4.07;2.95;;;18.20;99.90;;;;;;5071152;28;20213;-51
2023/05/23 12:31:59;;;;;;;4.82;2.88;;;18.40;99.90;;;;;;5072631;28;20196;-52
2023/05/23 12:34:26;;;;;;;8.93;4.50;;;;;;;;;;5071926;28;20549;-49
2023/05/23 12:36:59;;;;;;;5.13;2.67;;;18.20;99.90;;;;;;5072026;28;20328;-48
2023/05/23 12:39:27;;;;;;;7.00;2.80;;;18.10;99.90;;;;;;5070750;28;20174;-50
2023/05/23 12:41:55;;;;;;;7.20;3.08;;;;;;;;;;5071753;28;20248;-48
2023/05/23 12:44:21;;;;;;;7.57;3.65;;;18.60;99.90;;;;;;5071439;28;20711;-51
2023/05/23 12:46:47;;;;;;;7.90;3.35;;;18.50;99.90;;;;;;5071643;28;20178;-48
2023/05/23 12:49:13;;;;;;;8.80;3.00;;;;;;;;;;5071333;28;20174;-49
2023/05/23 12:51:39;;;;;;;7.68;3.35;;;;;;;;;;5071951;28;20178;-47
2023/05/23 12:54:07;;;;;;;10.40;3.83;;;18.70;99.90;;;;;;5072057;28;20173;-52